KSVN/SVN METAR and TAF weather

Enter ICAO airport designator
Station Type Date Time Source
KSVN METAR 2020/09/23 02:56 UTC NOAA

KSVN 230256Z AUTO 00000KT 10SM CLR 16/13 A3010 RMK AO2 SLP196 T01610130 50003 $


Station Type Date Time Source
KSVN Decoded METAR 2020/09/23 02:56 UTC NOAA

Hunter U. S. Army Airfield , GA, United States (KSVN) 32-01N 081-09W
Sep 22, 2020 - 10:56 PM EDT / 2020.09.23 0256 UTC
Wind: Calm:0
Visibility: 10 mile(s):0
Sky conditions: clear
Temperature: 61.0 F (16.1 C)
Dew Point: 55.4 F (13.0 C)
Relative Humidity: 81%
Pressure (altimeter): 30.1 in. Hg (1019 hPa)
Pressure tendency: 0.01 inches (0.3 hPa) higher than three hours ago
ob: KSVN 230256Z AUTO 00000KT 10SM CLR 16/13 A3010 RMK AO2 SLP196 T01610130 50003
cycle: 3

Station Type Date Time Source
KSVN TAF 2020/09/22 20:06 UTC NOAA

TAF KSVN 222000Z 2220/2402 04006KT 9999 SCT250 QNH3011INS
BECMG 2313/2314 01006KT 9999 SCT045 SCT200 QNH3007INS TX26/2222Z TN14/2309Z

Example: see airport list